Terminal Aerodrome Forecast
Issued by NWS Jacksonville, FL

Home | Current Version | Previous Version | Text Only | Print | Product List | Glossary On
Versions: 1 2 3 4 5 6 7 8 9 10 11 12 13 14 15 16 17 18 19 20 21 22 23 24 25 26 27 28
000
FTUS42 KJAX 180200 AAA
TAFGNV
TAF AMD
KGNV 180245Z 1803/1824 VRB02KT P6SM FEW250
     FM180800 00000KT 3SM BR SCT002
      TEMPO 1808/1811 1SM BR
     FM181200 00000KT P6SM FEW008
     FM181500 29003KT P6SM SCT040 SCT250=

USA.gov is the U.S. government's official web portal to all federal, state and local government web resources and services.